sensor_id;sensor_type;location;lat;lon;timestamp;P1;durP1;ratioP1;P2;durP2;ratioP2
74630;SDS011;63138;55.082;38.804;2023-03-01T00:02:12;3.45;;;1.70;;
74630;SDS011;63138;55.082;38.804;2023-03-01T00:04:37;3.07;;;1.97;;
74630;SDS011;63138;55.082;38.804;2023-03-01T00:07:03;4.93;;;2.20;;
74630;SDS011;63138;55.082;38.804;2023-03-01T00:09:29;3.87;;;1.97;;
74630;SDS011;63138;55.082;38.804;2023-03-01T00:11:55;4.32;;;2.22;;
74630;SDS011;63138;55.082;38.804;2023-03-01T00:14:21;8.18;;;2.15;;
74630;SDS011;63138;55.082;38.804;2023-03-01T00:16:47;4.00;;;2.00;;
74630;SDS011;63138;55.082;38.804;2023-03-01T00:19:13;4.45;;;2.00;;
74630;SDS011;63138;55.082;38.804;2023-03-01T00:21:41;3.42;;;1.98;;
74630;SDS011;63138;55.082;38.804;2023-03-01T00:24:07;3.90;;;1.80;;
74630;SDS011;63138;55.082;38.804;2023-03-01T00:26:33;4.93;;;2.13;;
74630;SDS011;63138;55.082;38.804;2023-03-01T00:28:59;4.38;;;1.77;;
74630;SDS011;63138;55.082;38.804;2023-03-01T00:31:27;4.00;;;2.00;;
74630;SDS011;63138;55.082;38.804;2023-03-01T00:33:54;3.25;;;1.75;;
74630;SDS011;63138;55.082;38.804;2023-03-01T00:36:33;2.60;;;1.83;;
74630;SDS011;63138;55.082;38.804;2023-03-01T00:39:02;4.35;;;2.00;;
74630;SDS011;63138;55.082;38.804;2023-03-01T00:41:29;3.47;;;1.88;;
74630;SDS011;63138;55.082;38.804;2023-03-01T00:43:55;4.35;;;2.28;;
74630;SDS011;63138;55.082;38.804;2023-03-01T00:46:22;7.63;;;1.73;;
74630;SDS011;63138;55.082;38.804;2023-03-01T00:48:50;5.15;;;2.05;;
74630;SDS011;63138;55.082;38.804;2023-03-01T00:51:18;4.85;;;2.08;;
74630;SDS011;63138;55.082;38.804;2023-03-01T00:53:47;3.10;;;2.10;;
74630;SDS011;63138;55.082;38.804;2023-03-01T00:56:16;3.78;;;1.92;;
74630;SDS011;63138;55.082;38.804;2023-03-01T00:58:43;3.67;;;1.93;;
74630;SDS011;63138;55.082;38.804;2023-03-01T01:01:10;2.72;;;1.40;;
74630;SDS011;63138;55.082;38.804;2023-03-01T01:03:52;3.05;;;1.80;;
74630;SDS011;63138;55.082;38.804;2023-03-01T01:06:22;5.35;;;1.90;;
74630;SDS011;63138;55.082;38.804;2023-03-01T01:08:50;3.55;;;2.00;;
74630;SDS011;63138;55.082;38.804;2023-03-01T01:11:17;3.80;;;1.70;;
74630;SDS011;63138;55.082;38.804;2023-03-01T01:13:44;2.75;;;1.80;;
74630;SDS011;63138;55.082;38.804;2023-03-01T01:16:11;3.50;;;1.98;;
74630;SDS011;63138;55.082;38.804;2023-03-01T01:18:38;3.40;;;1.75;;
74630;SDS011;63138;55.082;38.804;2023-03-01T01:21:05;3.80;;;2.00;;
74630;SDS011;63138;55.082;38.804;2023-03-01T01:23:36;3.67;;;1.98;;
74630;SDS011;63138;55.082;38.804;2023-03-01T01:26:04;4.75;;;1.95;;
74630;SDS011;63138;55.082;38.804;2023-03-01T01:28:35;2.42;;;1.65;;
74630;SDS011;63138;55.082;38.804;2023-03-01T01:31:00;3.20;;;1.87;;
74630;SDS011;63138;55.082;38.804;2023-03-01T01:33:26;3.15;;;1.75;;
74630;SDS011;63138;55.082;38.804;2023-03-01T01:35:53;3.60;;;2.00;;
74630;SDS011;63138;55.082;38.804;2023-03-01T01:38:19;7.20;;;2.23;;
74630;SDS011;63138;55.082;38.804;2023-03-01T01:40:45;3.50;;;2.03;;
74630;SDS011;63138;55.082;38.804;2023-03-01T01:43:22;5.72;;;2.05;;
74630;SDS011;63138;55.082;38.804;2023-03-01T01:45:57;3.63;;;2.20;;
74630;SDS011;63138;55.082;38.804;2023-03-01T01:48:29;3.80;;;1.80;;
74630;SDS011;63138;55.082;38.804;2023-03-01T01:51:05;2.60;;;2.00;;
74630;SDS011;63138;55.082;38.804;2023-03-01T01:53:36;3.83;;;1.63;;
74630;SDS011;63138;55.082;38.804;2023-03-01T01:56:03;3.22;;;1.90;;
74630;SDS011;63138;55.082;38.804;2023-03-01T01:58:33;5.17;;;2.50;;
74630;SDS011;63138;55.082;38.804;2023-03-01T02:00:58;3.80;;;1.83;;
74630;SDS011;63138;55.082;38.804;2023-03-01T02:03:27;2.70;;;1.80;;
74630;SDS011;63138;55.082;38.804;2023-03-01T02:06:46;5.55;;;2.00;;
74630;SDS011;63138;55.082;38.804;2023-03-01T02:08:55;3.17;;;1.67;;
74630;SDS011;63138;55.082;38.804;2023-03-01T02:11:25;3.42;;;1.88;;
74630;SDS011;63138;55.082;38.804;2023-03-01T02:13:52;2.88;;;1.92;;
74630;SDS011;63138;55.082;38.804;2023-03-01T02:16:20;5.72;;;2.05;;
74630;SDS011;63138;55.082;38.804;2023-03-01T02:18:46;4.30;;;2.05;;
74630;SDS011;63138;55.082;38.804;2023-03-01T02:26:51;2.83;;;1.80;;
74630;SDS011;63138;55.082;38.804;2023-03-01T02:29:21;4.50;;;2.33;;
74630;SDS011;63138;55.082;38.804;2023-03-01T02:31:49;3.33;;;1.93;;
74630;SDS011;63138;55.082;38.804;2023-03-01T02:34:18;4.15;;;1.80;;
74630;SDS011;63138;55.082;38.804;2023-03-01T02:36:52;2.75;;;2.00;;
74630;SDS011;63138;55.082;38.804;2023-03-01T02:39:30;2.70;;;1.80;;
74630;SDS011;63138;55.082;38.804;2023-03-01T02:41:59;4.63;;;1.80;;
74630;SDS011;63138;55.082;38.804;2023-03-01T02:44:28;6.30;;;2.53;;
74630;SDS011;63138;55.082;38.804;2023-03-01T02:46:55;3.05;;;2.00;;
74630;SDS011;63138;55.082;38.804;2023-03-01T02:49:29;3.20;;;2.03;;
74630;SDS011;63138;55.082;38.804;2023-03-01T02:54:53;2.72;;;1.70;;
74630;SDS011;63138;55.082;38.804;2023-03-01T02:57:28;5.33;;;3.07;;
74630;SDS011;63138;55.082;38.804;2023-03-01T02:59:57;2.85;;;2.30;;
74630;SDS011;63138;55.082;38.804;2023-03-01T03:02:32;2.85;;;1.73;;
74630;SDS011;63138;55.082;38.804;2023-03-01T03:05:10;2.92;;;2.00;;
74630;SDS011;63138;55.082;38.804;2023-03-01T03:07:50;2.78;;;1.60;;
74630;SDS011;63138;55.082;38.804;2023-03-01T03:10:19;4.33;;;2.00;;
74630;SDS011;63138;55.082;38.804;2023-03-01T03:12:51;3.20;;;1.90;;
74630;SDS011;63138;55.082;38.804;2023-03-01T03:15:20;5.40;;;1.73;;
74630;SDS011;63138;55.082;38.804;2023-03-01T03:17:46;7.03;;;2.03;;
74630;SDS011;63138;55.082;38.804;2023-03-01T03:20:14;2.90;;;1.83;;
74630;SDS011;63138;55.082;38.804;2023-03-01T03:22:44;5.13;;;1.58;;
74630;SDS011;63138;55.082;38.804;2023-03-01T03:25:15;7.35;;;2.15;;
74630;SDS011;63138;55.082;38.804;2023-03-01T03:27:42;2.70;;;1.60;;
74630;SDS011;63138;55.082;38.804;2023-03-01T03:30:11;2.75;;;1.52;;
74630;SDS011;63138;55.082;38.804;2023-03-01T03:32:39;4.63;;;2.13;;
74630;SDS011;63138;55.082;38.804;2023-03-01T03:35:06;4.38;;;1.60;;
74630;SDS011;63138;55.082;38.804;2023-03-01T03:37:37;3.58;;;2.10;;
74630;SDS011;63138;55.082;38.804;2023-03-01T03:40:23;3.83;;;1.88;;
74630;SDS011;63138;55.082;38.804;2023-03-01T03:42:49;5.68;;;2.00;;
74630;SDS011;63138;55.082;38.804;2023-03-01T03:45:18;5.40;;;2.37;;
74630;SDS011;63138;55.082;38.804;2023-03-01T03:47:44;6.53;;;2.80;;
74630;SDS011;63138;55.082;38.804;2023-03-01T03:50:11;4.63;;;2.72;;
74630;SDS011;63138;55.082;38.804;2023-03-01T03:52:38;3.72;;;2.08;;
74630;SDS011;63138;55.082;38.804;2023-03-01T03:55:05;3.73;;;2.10;;
74630;SDS011;63138;55.082;38.804;2023-03-01T03:57:35;3.80;;;2.10;;
74630;SDS011;63138;55.082;38.804;2023-03-01T04:00:01;2.60;;;1.80;;
74630;SDS011;63138;55.082;38.804;2023-03-01T04:02:37;4.38;;;2.22;;
74630;SDS011;63138;55.082;38.804;2023-03-01T04:05:07;4.43;;;2.10;;
74630;SDS011;63138;55.082;38.804;2023-03-01T04:07:34;3.43;;;2.30;;
74630;SDS011;63138;55.082;38.804;2023-03-01T04:10:01;3.35;;;2.20;;
74630;SDS011;63138;55.082;38.804;2023-03-01T04:12:32;3.92;;;2.08;;
74630;SDS011;63138;55.082;38.804;2023-03-01T04:15:03;4.05;;;2.05;;
74630;SDS011;63138;55.082;38.804;2023-03-01T04:17:40;5.78;;;2.30;;
74630;SDS011;63138;55.082;38.804;2023-03-01T04:20:11;3.30;;;2.15;;
74630;SDS011;63138;55.082;38.804;2023-03-01T04:22:42;3.17;;;2.30;;
74630;SDS011;63138;55.082;38.804;2023-03-01T04:25:12;3.83;;;2.10;;
74630;SDS011;63138;55.082;38.804;2023-03-01T04:27:40;4.38;;;2.03;;
74630;SDS011;63138;55.082;38.804;2023-03-01T04:30:06;3.92;;;2.63;;
74630;SDS011;63138;55.082;38.804;2023-03-01T04:32:33;5.23;;;2.30;;
74630;SDS011;63138;55.082;38.804;2023-03-01T04:35:00;3.75;;;1.73;;
74630;SDS011;63138;55.082;38.804;2023-03-01T04:37:26;3.92;;;2.20;;
74630;SDS011;63138;55.082;38.804;2023-03-01T04:39:52;5.38;;;2.10;;
74630;SDS011;63138;55.082;38.804;2023-03-01T04:42:18;3.60;;;2.57;;
74630;SDS011;63138;55.082;38.804;2023-03-01T04:44:44;4.97;;;2.10;;
74630;SDS011;63138;55.082;38.804;2023-03-01T04:47:10;2.75;;;1.60;;
74630;SDS011;63138;55.082;38.804;2023-03-01T04:49:37;5.72;;;2.25;;
74630;SDS011;63138;55.082;38.804;2023-03-01T04:52:03;4.63;;;2.30;;
74630;SDS011;63138;55.082;38.804;2023-03-01T04:54:33;4.35;;;1.98;;
74630;SDS011;63138;55.082;38.804;2023-03-01T04:57:00;6.63;;;3.00;;
74630;SDS011;63138;55.082;38.804;2023-03-01T04:59:26;5.22;;;1.58;;
74630;SDS011;63138;55.082;38.804;2023-03-01T05:01:53;3.90;;;2.30;;
74630;SDS011;63138;55.082;38.804;2023-03-01T05:04:21;7.60;;;4.50;;
74630;SDS011;63138;55.082;38.804;2023-03-01T05:06:48;4.40;;;3.08;;
74630;SDS011;63138;55.082;38.804;2023-03-01T05:09:13;4.68;;;2.35;;
74630;SDS011;63138;55.082;38.804;2023-03-01T05:11:39;5.20;;;3.17;;
74630;SDS011;63138;55.082;38.804;2023-03-01T05:14:06;5.27;;;2.43;;
74630;SDS011;63138;55.082;38.804;2023-03-01T05:16:33;4.40;;;2.83;;
74630;SDS011;63138;55.082;38.804;2023-03-01T05:18:59;4.68;;;2.45;;
74630;SDS011;63138;55.082;38.804;2023-03-01T05:21:25;4.97;;;2.72;;
74630;SDS011;63138;55.082;38.804;2023-03-01T05:23:51;4.83;;;2.50;;
74630;SDS011;63138;55.082;38.804;2023-03-01T05:26:18;5.63;;;2.75;;
74630;SDS011;63138;55.082;38.804;2023-03-01T05:28:47;4.50;;;2.40;;
74630;SDS011;63138;55.082;38.804;2023-03-01T05:31:13;3.38;;;2.05;;
74630;SDS011;63138;55.082;38.804;2023-03-01T05:33:39;3.92;;;2.20;;
74630;SDS011;63138;55.082;38.804;2023-03-01T05:36:06;3.83;;;2.30;;
74630;SDS011;63138;55.082;38.804;2023-03-01T05:38:33;3.90;;;2.47;;
74630;SDS011;63138;55.082;38.804;2023-03-01T05:40:59;4.88;;;2.83;;
74630;SDS011;63138;55.082;38.804;2023-03-01T05:43:25;4.28;;;2.60;;
74630;SDS011;63138;55.082;38.804;2023-03-01T05:45:51;4.90;;;2.90;;
74630;SDS011;63138;55.082;38.804;2023-03-01T05:48:17;4.30;;;3.35;;
74630;SDS011;63138;55.082;38.804;2023-03-01T05:50:44;5.03;;;3.00;;
74630;SDS011;63138;55.082;38.804;2023-03-01T05:53:14;4.27;;;2.83;;
74630;SDS011;63138;55.082;38.804;2023-03-01T05:55:42;5.63;;;5.00;;
74630;SDS011;63138;55.082;38.804;2023-03-01T05:58:10;5.00;;;4.47;;
74630;SDS011;63138;55.082;38.804;2023-03-01T06:00:40;4.70;;;4.30;;
74630;SDS011;63138;55.082;38.804;2023-03-01T06:03:09;4.95;;;3.58;;
74630;SDS011;63138;55.082;38.804;2023-03-01T06:05:36;5.83;;;4.10;;
74630;SDS011;63138;55.082;38.804;2023-03-01T06:08:03;4.50;;;4.10;;
74630;SDS011;63138;55.082;38.804;2023-03-01T06:10:29;4.68;;;4.10;;
74630;SDS011;63138;55.082;38.804;2023-03-01T06:12:56;6.00;;;4.50;;
74630;SDS011;63138;55.082;38.804;2023-03-01T06:15:22;5.03;;;3.88;;
74630;SDS011;63138;55.082;38.804;2023-03-01T06:17:49;4.20;;;3.70;;
74630;SDS011;63138;55.082;38.804;2023-03-01T06:20:20;6.00;;;4.43;;
74630;SDS011;63138;55.082;38.804;2023-03-01T06:22:47;5.85;;;4.97;;
74630;SDS011;63138;55.082;38.804;2023-03-01T06:25:15;5.32;;;4.72;;
74630;SDS011;63138;55.082;38.804;2023-03-01T06:27:43;6.07;;;4.72;;
74630;SDS011;63138;55.082;38.804;2023-03-01T06:30:09;5.10;;;4.60;;
74630;SDS011;63138;55.082;38.804;2023-03-01T06:32:37;5.20;;;4.43;;
74630;SDS011;63138;55.082;38.804;2023-03-01T06:35:07;5.57;;;4.50;;
74630;SDS011;63138;55.082;38.804;2023-03-01T06:37:38;5.70;;;4.32;;
74630;SDS011;63138;55.082;38.804;2023-03-01T06:40:05;5.68;;;5.10;;
74630;SDS011;63138;55.082;38.804;2023-03-01T06:42:39;5.13;;;4.63;;
74630;SDS011;63138;55.082;38.804;2023-03-01T06:45:06;6.90;;;4.68;;
74630;SDS011;63138;55.082;38.804;2023-03-01T06:47:33;4.43;;;3.95;;
74630;SDS011;63138;55.082;38.804;2023-03-01T06:50:00;8.32;;;4.90;;
74630;SDS011;63138;55.082;38.804;2023-03-01T06:52:27;6.57;;;5.10;;
74630;SDS011;63138;55.082;38.804;2023-03-01T06:54:54;6.60;;;5.37;;
74630;SDS011;63138;55.082;38.804;2023-03-01T06:57:20;6.60;;;5.30;;
74630;SDS011;63138;55.082;38.804;2023-03-01T06:59:46;7.57;;;5.07;;
74630;SDS011;63138;55.082;38.804;2023-03-01T07:02:31;5.75;;;5.25;;
74630;SDS011;63138;55.082;38.804;2023-03-01T07:04:57;6.10;;;5.20;;
74630;SDS011;63138;55.082;38.804;2023-03-01T07:07:23;6.95;;;6.00;;
74630;SDS011;63138;55.082;38.804;2023-03-01T07:09:49;7.50;;;5.57;;
74630;SDS011;63138;55.082;38.804;2023-03-01T07:12:15;6.32;;;5.60;;
74630;SDS011;63138;55.082;38.804;2023-03-01T07:14:43;6.22;;;5.63;;
74630;SDS011;63138;55.082;38.804;2023-03-01T07:17:09;7.13;;;5.67;;
74630;SDS011;63138;55.082;38.804;2023-03-01T07:19:53;6.78;;;6.13;;
74630;SDS011;63138;55.082;38.804;2023-03-01T07:22:19;5.78;;;5.07;;
74630;SDS011;63138;55.082;38.804;2023-03-01T07:24:45;7.80;;;6.33;;
74630;SDS011;63138;55.082;38.804;2023-03-01T07:27:12;6.00;;;5.40;;
74630;SDS011;63138;55.082;38.804;2023-03-01T07:29:38;6.13;;;4.82;;
74630;SDS011;63138;55.082;38.804;2023-03-01T07:32:04;5.60;;;5.10;;
74630;SDS011;63138;55.082;38.804;2023-03-01T07:34:31;7.82;;;4.95;;
74630;SDS011;63138;55.082;38.804;2023-03-01T07:37:15;6.13;;;5.53;;
74630;SDS011;63138;55.082;38.804;2023-03-01T07:39:41;6.35;;;5.75;;
74630;SDS011;63138;55.082;38.804;2023-03-01T07:42:07;7.43;;;6.77;;
74630;SDS011;63138;55.082;38.804;2023-03-01T07:44:34;6.07;;;5.53;;
74630;SDS011;63138;55.082;38.804;2023-03-01T07:47:00;6.78;;;6.18;;
74630;SDS011;63138;55.082;38.804;2023-03-01T07:49:26;8.77;;;5.20;;
74630;SDS011;63138;55.082;38.804;2023-03-01T07:51:52;4.60;;;3.97;;
74630;SDS011;63138;55.082;38.804;2023-03-01T07:54:21;6.68;;;5.45;;
74630;SDS011;63138;55.082;38.804;2023-03-01T07:56:47;7.05;;;6.35;;
74630;SDS011;63138;55.082;38.804;2023-03-01T07:59:14;7.28;;;6.18;;
74630;SDS011;63138;55.082;38.804;2023-03-01T08:01:40;6.93;;;6.10;;
74630;SDS011;63138;55.082;38.804;2023-03-01T08:04:07;6.75;;;6.15;;
74630;SDS011;63138;55.082;38.804;2023-03-01T08:06:33;6.90;;;6.20;;
74630;SDS011;63138;55.082;38.804;2023-03-01T08:09:00;6.60;;;6.00;;
74630;SDS011;63138;55.082;38.804;2023-03-01T08:11:26;5.90;;;5.30;;
74630;SDS011;63138;55.082;38.804;2023-03-01T08:14:12;6.07;;;5.57;;
74630;SDS011;63138;55.082;38.804;2023-03-01T08:16:37;5.82;;;5.22;;
74630;SDS011;63138;55.082;38.804;2023-03-01T08:19:07;7.17;;;5.63;;
74630;SDS011;63138;55.082;38.804;2023-03-01T08:21:35;6.30;;;5.70;;
74630;SDS011;63138;55.082;38.804;2023-03-01T08:24:04;7.15;;;5.88;;
74630;SDS011;63138;55.082;38.804;2023-03-01T08:26:50;6.28;;;5.47;;
74630;SDS011;63138;55.082;38.804;2023-03-01T08:29:15;6.40;;;5.80;;
74630;SDS011;63138;55.082;38.804;2023-03-01T08:31:41;6.18;;;5.57;;
74630;SDS011;63138;55.082;38.804;2023-03-01T08:34:08;6.07;;;5.47;;
74630;SDS011;63138;55.082;38.804;2023-03-01T08:36:39;6.00;;;4.00;;
74630;SDS011;63138;55.082;38.804;2023-03-01T08:39:10;5.40;;;4.13;;
74630;SDS011;63138;55.082;38.804;2023-03-01T08:41:38;6.63;;;5.22;;
74630;SDS011;63138;55.082;38.804;2023-03-01T08:44:04;6.80;;;6.10;;
74630;SDS011;63138;55.082;38.804;2023-03-01T08:46:34;5.20;;;4.05;;
74630;SDS011;63138;55.082;38.804;2023-03-01T08:49:04;6.20;;;4.80;;
74630;SDS011;63138;55.082;38.804;2023-03-01T08:51:31;5.95;;;5.40;;
74630;SDS011;63138;55.082;38.804;2023-03-01T08:54:04;7.30;;;5.97;;
74630;SDS011;63138;55.082;38.804;2023-03-01T08:56:30;8.32;;;6.75;;
74630;SDS011;63138;55.082;38.804;2023-03-01T08:58:56;7.82;;;6.78;;
74630;SDS011;63138;55.082;38.804;2023-03-01T09:01:22;6.83;;;5.80;;
74630;SDS011;63138;55.082;38.804;2023-03-01T09:03:49;6.00;;;5.50;;
74630;SDS011;63138;55.082;38.804;2023-03-01T09:06:15;6.18;;;5.57;;
74630;SDS011;63138;55.082;38.804;2023-03-01T09:08:42;6.40;;;5.63;;
74630;SDS011;63138;55.082;38.804;2023-03-01T09:11:10;8.48;;;6.10;;
74630;SDS011;63138;55.082;38.804;2023-03-01T09:13:37;5.88;;;5.18;;
74630;SDS011;63138;55.082;38.804;2023-03-01T09:16:04;7.18;;;5.22;;
74630;SDS011;63138;55.082;38.804;2023-03-01T09:18:33;6.30;;;4.40;;
74630;SDS011;63138;55.082;38.804;2023-03-01T09:21:01;6.55;;;4.90;;
74630;SDS011;63138;55.082;38.804;2023-03-01T09:23:35;5.93;;;5.30;;
74630;SDS011;63138;55.082;38.804;2023-03-01T09:26:04;5.88;;;4.95;;
74630;SDS011;63138;55.082;38.804;2023-03-01T09:28:31;6.40;;;4.72;;
74630;SDS011;63138;55.082;38.804;2023-03-01T09:30:58;5.20;;;4.70;;
74630;SDS011;63138;55.082;38.804;2023-03-01T09:33:26;6.85;;;5.35;;
74630;SDS011;63138;55.082;38.804;2023-03-01T09:35:57;7.45;;;5.13;;
74630;SDS011;63138;55.082;38.804;2023-03-01T09:38:27;6.88;;;5.30;;
74630;SDS011;63138;55.082;38.804;2023-03-01T09:40:53;5.63;;;4.80;;
74630;SDS011;63138;55.082;38.804;2023-03-01T09:46:13;8.02;;;5.70;;
74630;SDS011;63138;55.082;38.804;2023-03-01T09:48:44;6.88;;;5.20;;
74630;SDS011;63138;55.082;38.804;2023-03-01T09:51:22;6.38;;;4.80;;
74630;SDS011;63138;55.082;38.804;2023-03-01T09:53:55;6.17;;;4.70;;
74630;SDS011;63138;55.082;38.804;2023-03-01T10:04:48;7.28;;;4.65;;
74630;SDS011;63138;55.082;38.804;2023-03-01T10:09:51;5.32;;;4.82;;
74630;SDS011;63138;55.082;38.804;2023-03-01T10:12:18;7.65;;;4.85;;
74630;SDS011;63138;55.082;38.804;2023-03-01T10:14:54;4.93;;;4.43;;
74630;SDS011;63138;55.082;38.804;2023-03-01T10:17:27;5.53;;;4.40;;
74630;SDS011;63138;55.082;38.804;2023-03-01T10:20:10;10.98;;;5.00;;
74630;SDS011;63138;55.082;38.804;2023-03-01T10:22:39;6.43;;;5.07;;
74630;SDS011;63138;55.082;38.804;2023-03-01T10:25:08;6.07;;;4.55;;
74630;SDS011;63138;55.082;38.804;2023-03-01T10:27:42;7.80;;;4.83;;
74630;SDS011;63138;55.082;38.804;2023-03-01T10:32:53;6.28;;;4.20;;
74630;SDS011;63138;55.082;38.804;2023-03-01T10:35:21;5.47;;;4.07;;
74630;SDS011;63138;55.082;38.804;2023-03-01T10:38:02;6.05;;;4.15;;
74630;SDS011;63138;55.082;38.804;2023-03-01T10:40:32;9.67;;;6.03;;
74630;SDS011;63138;55.082;38.804;2023-03-01T10:42:59;5.95;;;4.25;;
74630;SDS011;63138;55.082;38.804;2023-03-01T10:48:10;6.55;;;3.83;;
74630;SDS011;63138;55.082;38.804;2023-03-01T10:50:44;11.85;;;5.97;;
74630;SDS011;63138;55.082;38.804;2023-03-01T10:55:56;9.25;;;4.20;;
74630;SDS011;63138;55.082;38.804;2023-03-01T11:01:33;5.78;;;3.40;;
74630;SDS011;63138;55.082;38.804;2023-03-01T11:06:36;6.17;;;4.10;;
74630;SDS011;63138;55.082;38.804;2023-03-01T11:09:17;7.47;;;3.15;;
74630;SDS011;63138;55.082;38.804;2023-03-01T11:14:46;8.95;;;4.30;;
74630;SDS011;63138;55.082;38.804;2023-03-01T11:20:23;5.00;;;3.30;;
74630;SDS011;63138;55.082;38.804;2023-03-01T11:23:11;5.45;;;3.22;;
74630;SDS011;63138;55.082;38.804;2023-03-01T11:25:40;4.50;;;2.75;;
74630;SDS011;63138;55.082;38.804;2023-03-01T11:28:11;6.30;;;2.88;;
74630;SDS011;63138;55.082;38.804;2023-03-01T11:36:01;7.65;;;3.58;;
74630;SDS011;63138;55.082;38.804;2023-03-01T11:38:47;6.05;;;3.50;;
74630;SDS011;63138;55.082;38.804;2023-03-01T11:41:15;4.55;;;2.70;;
74630;SDS011;63138;55.082;38.804;2023-03-01T11:49:05;5.38;;;2.88;;
74630;SDS011;63138;55.082;38.804;2023-03-01T11:51:55;6.55;;;3.08;;
74630;SDS011;63138;55.082;38.804;2023-03-01T12:11:38;5.93;;;3.13;;
74630;SDS011;63138;55.082;38.804;2023-03-01T12:17:14;6.53;;;3.50;;
74630;SDS011;63138;55.082;38.804;2023-03-01T12:30:54;7.03;;;3.22;;
74630;SDS011;63138;55.082;38.804;2023-03-01T12:42:18;7.80;;;3.70;;
74630;SDS011;63138;55.082;38.804;2023-03-01T12:50:41;5.40;;;2.90;;
74630;SDS011;63138;55.082;38.804;2023-03-01T12:53:34;15.68;;;3.40;;
74630;SDS011;63138;55.082;38.804;2023-03-01T12:56:10;4.90;;;2.80;;
74630;SDS011;63138;55.082;38.804;2023-03-01T13:13:01;5.15;;;3.40;;
74630;SDS011;63138;55.082;38.804;2023-03-01T13:15:34;7.43;;;3.22;;
74630;SDS011;63138;55.082;38.804;2023-03-01T13:23:28;3.43;;;2.20;;
74630;SDS011;63138;55.082;38.804;2023-03-01T13:30:57;5.07;;;2.33;;
74630;SDS011;63138;55.082;38.804;2023-03-01T13:35:53;7.50;;;3.00;;
74630;SDS011;63138;55.082;38.804;2023-03-01T13:41:11;4.97;;;2.60;;
74630;SDS011;63138;55.082;38.804;2023-03-01T13:43:42;5.20;;;3.22;;
74630;SDS011;63138;55.082;38.804;2023-03-01T13:48:52;6.67;;;2.70;;
74630;SDS011;63138;55.082;38.804;2023-03-01T13:51:25;4.97;;;2.55;;
74630;SDS011;63138;55.082;38.804;2023-03-01T13:53:54;3.90;;;2.40;;
74630;SDS011;63138;55.082;38.804;2023-03-01T13:56:27;4.50;;;3.03;;
74630;SDS011;63138;55.082;38.804;2023-03-01T13:58:59;4.88;;;2.60;;
74630;SDS011;63138;55.082;38.804;2023-03-01T14:01:31;5.90;;;2.80;;
74630;SDS011;63138;55.082;38.804;2023-03-01T14:03:59;3.92;;;2.60;;
74630;SDS011;63138;55.082;38.804;2023-03-01T14:06:29;3.05;;;2.22;;
74630;SDS011;63138;55.082;38.804;2023-03-01T14:17:52;3.83;;;2.28;;
74630;SDS011;63138;55.082;38.804;2023-03-01T14:20:32;7.22;;;2.50;;
74630;SDS011;63138;55.082;38.804;2023-03-01T14:23:12;5.72;;;2.40;;
74630;SDS011;63138;55.082;38.804;2023-03-01T14:25:56;4.13;;;2.35;;
74630;SDS011;63138;55.082;38.804;2023-03-01T14:28:28;3.50;;;2.20;;
74630;SDS011;63138;55.082;38.804;2023-03-01T14:33:55;5.85;;;1.90;;
74630;SDS011;63138;55.082;38.804;2023-03-01T14:36:26;3.85;;;1.95;;
74630;SDS011;63138;55.082;38.804;2023-03-01T14:38:53;3.55;;;2.30;;
74630;SDS011;63138;55.082;38.804;2023-03-01T14:43:52;4.70;;;2.03;;
74630;SDS011;63138;55.082;38.804;2023-03-01T14:46:24;3.13;;;2.00;;
74630;SDS011;63138;55.082;38.804;2023-03-01T14:48:56;3.70;;;2.00;;
74630;SDS011;63138;55.082;38.804;2023-03-01T14:51:28;4.95;;;2.00;;
74630;SDS011;63138;55.082;38.804;2023-03-01T14:53:54;4.37;;;2.27;;
74630;SDS011;63138;55.082;38.804;2023-03-01T14:56:21;3.92;;;1.90;;
74630;SDS011;63138;55.082;38.804;2023-03-01T14:58:52;4.35;;;2.20;;
74630;SDS011;63138;55.082;38.804;2023-03-01T15:01:23;2.78;;;1.65;;
74630;SDS011;63138;55.082;38.804;2023-03-01T15:03:49;4.07;;;2.03;;
74630;SDS011;63138;55.082;38.804;2023-03-01T15:06:20;3.67;;;1.90;;
74630;SDS011;63138;55.082;38.804;2023-03-01T15:08:52;7.18;;;2.30;;
74630;SDS011;63138;55.082;38.804;2023-03-01T15:11:23;5.50;;;2.38;;
74630;SDS011;63138;55.082;38.804;2023-03-01T15:13:54;6.70;;;2.70;;
74630;SDS011;63138;55.082;38.804;2023-03-01T15:16:27;3.60;;;2.50;;
74630;SDS011;63138;55.082;38.804;2023-03-01T15:19:00;5.18;;;2.25;;
74630;SDS011;63138;55.082;38.804;2023-03-01T15:21:32;4.45;;;1.88;;
74630;SDS011;63138;55.082;38.804;2023-03-01T15:24:13;5.35;;;1.90;;
74630;SDS011;63138;55.082;38.804;2023-03-01T15:26:57;3.28;;;2.03;;
74630;SDS011;63138;55.082;38.804;2023-03-01T15:29:32;3.60;;;1.70;;
74630;SDS011;63138;55.082;38.804;2023-03-01T15:32:34;5.25;;;2.22;;
74630;SDS011;63138;55.082;38.804;2023-03-01T15:35:49;4.47;;;2.05;;
74630;SDS011;63138;55.082;38.804;2023-03-01T15:38:00;5.78;;;2.20;;
74630;SDS011;63138;55.082;38.804;2023-03-01T15:40:27;6.07;;;2.43;;
74630;SDS011;63138;55.082;38.804;2023-03-01T15:42:57;5.35;;;2.10;;
74630;SDS011;63138;55.082;38.804;2023-03-01T15:45:25;4.22;;;2.70;;
74630;SDS011;63138;55.082;38.804;2023-03-01T15:48:18;4.82;;;2.00;;
74630;SDS011;63138;55.082;38.804;2023-03-01T15:50:53;5.28;;;2.30;;
74630;SDS011;63138;55.082;38.804;2023-03-01T15:53:20;4.60;;;2.10;;
74630;SDS011;63138;55.082;38.804;2023-03-01T15:55:46;5.80;;;2.10;;
74630;SDS011;63138;55.082;38.804;2023-03-01T15:58:18;5.55;;;2.40;;
74630;SDS011;63138;55.082;38.804;2023-03-01T16:00:46;3.42;;;1.92;;
74630;SDS011;63138;55.082;38.804;2023-03-01T16:03:14;3.08;;;2.05;;
74630;SDS011;63138;55.082;38.804;2023-03-01T16:05:47;3.57;;;2.10;;
74630;SDS011;63138;55.082;38.804;2023-03-01T16:08:15;2.97;;;1.80;;
74630;SDS011;63138;55.082;38.804;2023-03-01T16:10:42;5.10;;;2.22;;
74630;SDS011;63138;55.082;38.804;2023-03-01T16:13:12;3.00;;;1.83;;
74630;SDS011;63138;55.082;38.804;2023-03-01T16:15:39;2.80;;;2.00;;
74630;SDS011;63138;55.082;38.804;2023-03-01T16:18:06;3.03;;;2.10;;
74630;SDS011;63138;55.082;38.804;2023-03-01T16:20:35;3.67;;;1.92;;
74630;SDS011;63138;55.082;38.804;2023-03-01T16:23:03;3.53;;;2.15;;
74630;SDS011;63138;55.082;38.804;2023-03-01T16:25:31;5.00;;;2.40;;
74630;SDS011;63138;55.082;38.804;2023-03-01T16:27:57;2.80;;;2.08;;
74630;SDS011;63138;55.082;38.804;2023-03-01T16:30:51;5.97;;;2.60;;
74630;SDS011;63138;55.082;38.804;2023-03-01T16:33:16;3.15;;;2.00;;
74630;SDS011;63138;55.082;38.804;2023-03-01T16:35:43;5.45;;;2.10;;
74630;SDS011;63138;55.082;38.804;2023-03-01T16:38:09;3.75;;;2.17;;
74630;SDS011;63138;55.082;38.804;2023-03-01T16:40:36;3.43;;;1.73;;
74630;SDS011;63138;55.082;38.804;2023-03-01T16:43:02;3.08;;;1.83;;
74630;SDS011;63138;55.082;38.804;2023-03-01T16:45:32;3.58;;;2.00;;
74630;SDS011;63138;55.082;38.804;2023-03-01T16:48:01;3.92;;;1.80;;
74630;SDS011;63138;55.082;38.804;2023-03-01T16:50:28;4.03;;;1.77;;
74630;SDS011;63138;55.082;38.804;2023-03-01T16:52:54;3.40;;;1.97;;
74630;SDS011;63138;55.082;38.804;2023-03-01T16:55:20;3.28;;;1.65;;
74630;SDS011;63138;55.082;38.804;2023-03-01T16:57:45;3.90;;;2.20;;
74630;SDS011;63138;55.082;38.804;2023-03-01T17:00:11;6.40;;;2.13;;
74630;SDS011;63138;55.082;38.804;2023-03-01T17:02:38;3.28;;;1.90;;
74630;SDS011;63138;55.082;38.804;2023-03-01T17:05:06;2.90;;;1.80;;
74630;SDS011;63138;55.082;38.804;2023-03-01T17:07:33;3.33;;;2.10;;
74630;SDS011;63138;55.082;38.804;2023-03-01T17:10:02;2.70;;;1.80;;
74630;SDS011;63138;55.082;38.804;2023-03-01T17:12:38;4.50;;;2.00;;
74630;SDS011;63138;55.082;38.804;2023-03-01T17:15:04;5.43;;;1.90;;